createdAt,value
2022-09-27T00:01:41.756Z,12.71
2022-09-27T00:04:12.856Z,12.73
2022-09-27T00:06:41.278Z,12.71
2022-09-27T00:09:10.776Z,12.68
2022-09-27T00:11:42.783Z,12.72
2022-09-27T00:14:13.595Z,12.69
2022-09-27T00:16:43.064Z,12.67
2022-09-27T00:19:15.787Z,12.63
2022-09-27T00:21:45.009Z,12.60
2022-09-27T00:24:14.506Z,12.59
2022-09-27T00:26:43.317Z,12.57
2022-09-27T00:29:11.955Z,12.54
2022-09-27T00:31:40.577Z,12.53
2022-09-27T00:34:12.957Z,12.51
2022-09-27T00:36:42.407Z,12.49
2022-09-27T00:39:10.925Z,12.48
2022-09-27T00:41:39.171Z,12.50
2022-09-27T00:45:00.355Z,12.49
2022-09-27T00:47:33.829Z,12.51
2022-09-27T00:50:06.911Z,12.54
2022-09-27T00:52:42.234Z,12.58
2022-09-27T00:55:14.637Z,12.58
2022-09-27T00:57:45.663Z,12.57
2022-09-27T01:00:15.629Z,12.59
2022-09-27T01:02:47.220Z,12.61
2022-09-27T01:05:15.975Z,12.57
2022-09-27T01:07:45.435Z,12.59
2022-09-27T01:10:14.387Z,12.61
2022-09-27T01:12:55.037Z,12.61
2022-09-27T01:15:32.664Z,12.62
2022-09-27T01:18:19.310Z,12.60
2022-09-27T01:21:22.300Z,12.61
2022-09-27T01:24:08.245Z,12.60
2022-09-27T01:26:59.211Z,12.62
2022-09-27T01:29:38.264Z,12.62
2022-09-27T01:32:15.264Z,12.60
2022-09-27T01:34:49.336Z,12.60
2022-09-27T01:37:25.753Z,12.59
2022-09-27T01:40:01.268Z,12.63
2022-09-27T01:42:37.051Z,12.60
2022-09-27T01:45:11.835Z,12.56
2022-09-27T01:47:45.847Z,12.56
2022-09-27T01:50:19.118Z,12.56
2022-09-27T01:52:52.563Z,12.53
2022-09-27T01:55:25.083Z,12.54
2022-09-27T01:57:59.710Z,12.56
2022-09-27T02:00:28.004Z,12.57
2022-09-27T02:03:03.137Z,12.56
2022-09-27T02:05:35.596Z,12.53
2022-09-27T02:08:09.303Z,12.56
2022-09-27T02:10:42.396Z,12.54
2022-09-27T02:13:19.894Z,12.51
2022-09-27T02:15:58.583Z,12.58
2022-09-27T02:18:34.779Z,12.61
2022-09-27T02:21:08.879Z,12.68
2022-09-27T02:23:42.886Z,12.57
2022-09-27T02:26:15.760Z,12.56
2022-09-27T02:28:50.712Z,12.64
2022-09-27T02:31:19.337Z,12.59
2022-09-27T02:33:53.659Z,12.59
2022-09-27T02:36:22.877Z,12.60
2022-09-27T02:38:51.564Z,12.53
2022-09-27T02:41:22.434Z,12.56
2022-09-27T02:43:53.892Z,12.54
2022-09-27T02:46:48.244Z,12.53
2022-09-27T02:49:33.062Z,12.55
2022-09-27T02:52:13.507Z,12.53
2022-09-27T02:54:49.188Z,12.58
2022-09-27T02:57:28.221Z,12.59
2022-09-27T03:00:06.830Z,12.60
2022-09-27T03:02:42.666Z,12.59
2022-09-27T03:05:18.257Z,12.65
2022-09-27T03:07:46.561Z,12.62
2022-09-27T03:10:19.780Z,12.63
2022-09-27T03:12:48.054Z,12.63
2022-09-27T03:15:16.399Z,12.63
2022-09-27T03:17:44.989Z,12.67
2022-09-27T03:20:14.644Z,12.66
2022-09-27T03:22:42.789Z,12.68
2022-09-27T03:25:11.225Z,12.68
2022-09-27T03:27:39.614Z,12.69
2022-09-27T03:30:08.670Z,12.69
2022-09-27T03:32:38.867Z,12.71
2022-09-27T03:35:10.717Z,12.72
2022-09-27T03:37:41.197Z,12.73
2022-09-27T03:40:10.807Z,12.73
2022-09-27T03:42:40.117Z,12.75
2022-09-27T03:45:09.215Z,12.76
2022-09-27T03:47:42.521Z,12.77
2022-09-27T03:50:12.909Z,12.76
2022-09-27T03:52:44.228Z,12.80
2022-09-27T03:55:12.897Z,12.81
2022-09-27T03:57:41.040Z,12.82
2022-09-27T04:00:10.759Z,12.79
2022-09-27T04:02:39.033Z,12.79
2022-09-27T04:05:07.933Z,12.82
2022-09-27T04:07:36.162Z,12.82
2022-09-27T04:10:06.773Z,12.84
2022-09-27T04:12:35.495Z,12.81
2022-09-27T04:15:03.677Z,12.83
2022-09-27T04:17:31.860Z,12.81
2022-09-27T04:19:59.927Z,12.75
2022-09-27T04:22:28.521Z,12.78
2022-09-27T04:24:56.897Z,12.73
2022-09-27T04:27:26.742Z,12.65
2022-09-27T04:29:54.840Z,12.65
2022-09-27T04:32:22.936Z,12.65
2022-09-27T04:35:08.181Z,12.67
2022-09-27T04:37:37.018Z,12.66
2022-09-27T04:40:05.929Z,12.64
2022-09-27T04:42:35.460Z,12.56
2022-09-27T04:45:03.588Z,12.47
2022-09-27T04:47:32.060Z,12.44
2022-09-27T04:50:00.199Z,12.45
2022-09-27T04:52:28.393Z,12.43
2022-09-27T04:54:56.579Z,12.39
2022-09-27T04:57:24.757Z,12.42
2022-09-27T04:59:54.349Z,12.47
2022-09-27T05:02:22.526Z,12.46
2022-09-27T05:04:50.741Z,12.43
2022-09-27T05:07:18.917Z,12.46
2022-09-27T05:09:46.998Z,12.40
2022-09-27T05:12:15.229Z,12.44
2022-09-27T05:14:43.345Z,12.41
2022-09-27T05:17:13.095Z,12.39
2022-09-27T05:19:41.362Z,12.40
2022-09-27T05:22:10.095Z,12.40
2022-09-27T05:24:39.354Z,12.40
2022-09-27T05:27:09.602Z,12.42
2022-09-27T05:29:37.772Z,12.43
2022-09-27T05:32:06.179Z,12.44
2022-09-27T05:34:35.744Z,12.43
2022-09-27T05:37:03.875Z,12.44
2022-09-27T05:39:32.067Z,12.43
2022-09-27T05:42:00.322Z,12.48
2022-09-27T05:44:28.471Z,12.44
2022-09-27T05:46:56.721Z,12.41
2022-09-27T05:49:25.056Z,12.43
2022-09-27T05:51:54.717Z,12.41
2022-09-27T05:54:22.873Z,12.39
2022-09-27T05:56:51.461Z,12.38
2022-09-27T05:59:19.627Z,12.36
2022-09-27T06:01:48.432Z,12.33
2022-09-27T06:04:16.786Z,12.49
2022-09-27T06:06:45.960Z,12.37
2022-09-27T06:09:17.136Z,12.31
2022-09-27T06:11:46.385Z,12.32
2022-09-27T06:14:15.053Z,12.23
2022-09-27T06:16:43.311Z,12.19
2022-09-27T06:19:11.921Z,12.18
2022-09-27T06:21:40.281Z,12.34
2022-09-27T06:24:08.888Z,12.37
2022-09-27T06:26:38.715Z,12.37
2022-09-27T06:29:07.970Z,12.39
2022-09-27T06:31:36.357Z,12.38
2022-09-27T06:34:05.034Z,12.17
2022-09-27T06:36:33.991Z,12.16
2022-09-27T06:39:02.278Z,12.17
2022-09-27T06:41:30.457Z,12.21
2022-09-27T06:43:59.965Z,12.18
2022-09-27T06:46:28.182Z,12.28
2022-09-27T06:48:56.959Z,12.21
2022-09-27T06:51:25.332Z,12.19
2022-09-27T06:53:53.510Z,12.20
2022-09-27T06:56:21.649Z,12.20
2022-09-27T06:59:07.118Z,12.41
2022-09-27T07:01:36.775Z,12.43
2022-09-27T07:04:07.379Z,12.39
2022-09-27T07:06:35.840Z,12.42
2022-09-27T07:09:04.232Z,12.42
2022-09-27T07:11:33.287Z,12.44
2022-09-27T07:14:02.168Z,12.48
2022-09-27T07:16:30.878Z,12.55
2022-09-27T07:19:00.425Z,12.57
2022-09-27T07:21:28.657Z,12.62
2022-09-27T07:23:56.783Z,12.66
2022-09-27T07:26:25.044Z,12.67
2022-09-27T07:28:53.592Z,12.58
2022-09-27T07:31:21.708Z,12.61
2022-09-27T07:33:49.968Z,12.59
2022-09-27T07:36:19.528Z,12.60
2022-09-27T07:38:47.623Z,12.60
2022-09-27T07:41:17.167Z,12.61
2022-09-27T07:43:45.784Z,12.61
2022-09-27T07:46:14.807Z,12.61
2022-09-27T07:48:43.388Z,12.61
2022-09-27T07:51:12.192Z,12.62
2022-09-27T07:53:41.948Z,12.72
2022-09-27T07:56:10.125Z,12.69
2022-09-27T07:58:38.447Z,12.74
2022-09-27T08:01:07.338Z,12.81
2022-09-27T08:03:36.394Z,12.83
2022-09-27T08:06:05.458Z,12.89
2022-09-27T08:08:33.610Z,12.91
2022-09-27T08:11:03.673Z,12.91
2022-09-27T08:13:31.912Z,13.00
2022-09-27T08:16:03.779Z,13.03
2022-09-27T08:18:31.934Z,13.09
2022-09-27T08:21:01.384Z,13.05
2022-09-27T08:23:29.504Z,13.05
2022-09-27T08:25:58.652Z,13.09
2022-09-27T08:28:28.702Z,13.11
2022-09-27T08:31:00.178Z,13.14
2022-09-27T08:33:32.331Z,13.18
2022-09-27T08:36:01.977Z,13.19
2022-09-27T08:38:30.116Z,13.20
2022-09-27T08:41:02.860Z,13.22
2022-09-27T08:43:38.689Z,13.36
2022-09-27T08:46:20.932Z,13.39
2022-09-27T08:48:54.710Z,13.45
2022-09-27T08:51:29.118Z,13.51
2022-09-27T08:54:02.453Z,13.59
2022-09-27T08:56:30.804Z,13.59
2022-09-27T08:59:05.794Z,13.64
2022-09-27T09:01:35.318Z,13.64
2022-09-27T09:04:05.497Z,13.62
2022-09-27T09:06:41.774Z,13.64
2022-09-27T09:09:25.181Z,13.62
2022-09-27T09:12:19.865Z,13.63
2022-09-27T09:15:07.373Z,13.60
2022-09-27T09:17:48.935Z,13.62
2022-09-27T09:20:30.990Z,13.60
2022-09-27T09:23:18.006Z,13.65
2022-09-27T09:25:52.512Z,13.67
2022-09-27T09:28:34.591Z,13.58
2022-09-27T09:31:11.813Z,13.63
2022-09-27T09:33:43.098Z,13.68
2022-09-27T09:36:17.014Z,13.72
2022-09-27T09:38:50.307Z,13.81
2022-09-27T09:41:23.966Z,13.88
2022-09-27T09:43:57.202Z,13.92
2022-09-27T09:46:35.261Z,13.90
2022-09-27T09:49:10.203Z,13.99
2022-09-27T09:51:45.531Z,13.99
2022-09-27T09:54:24.144Z,13.97
2022-09-27T09:57:00.682Z,13.97
2022-09-27T09:59:36.850Z,13.98
2022-09-27T10:02:21.204Z,13.98
2022-09-27T10:04:49.461Z,14.03
2022-09-27T10:07:20.863Z,14.03
2022-09-27T10:09:48.997Z,14.09
2022-09-27T10:12:17.259Z,14.13
2022-09-27T10:14:48.895Z,14.12
2022-09-27T10:17:22.567Z,14.14
2022-09-27T10:19:52.877Z,14.15
2022-09-27T10:22:26.872Z,14.12
2022-09-27T10:25:01.954Z,14.12
2022-09-27T10:27:40.861Z,14.09
2022-09-27T10:30:23.559Z,14.13
2022-09-27T10:32:57.079Z,14.11
2022-09-27T10:35:38.098Z,14.10
2022-09-27T10:38:34.078Z,14.02
2022-09-27T10:41:23.021Z,14.04
2022-09-27T10:43:51.303Z,13.99
2022-09-27T10:46:27.158Z,13.98
2022-09-27T10:49:17.702Z,13.92
2022-09-27T10:51:48.031Z,13.97
2022-09-27T10:54:24.389Z,13.98
2022-09-27T10:56:58.063Z,13.98
2022-09-27T10:59:30.837Z,14.03
2022-09-27T11:01:59.921Z,14.06
2022-09-27T11:04:32.457Z,13.92
2022-09-27T11:07:10.564Z,13.92
2022-09-27T11:09:48.905Z,13.95
2022-09-27T11:12:20.645Z,14.02
2022-09-27T11:14:58.539Z,14.02
2022-09-27T11:17:33.832Z,14.02
2022-09-27T11:20:18.366Z,13.99
2022-09-27T11:23:16.904Z,13.92
2022-09-27T11:25:58.668Z,13.93
2022-09-27T11:28:42.033Z,13.88
2022-09-27T11:31:20.062Z,13.85
2022-09-27T11:34:17.763Z,13.87
2022-09-27T11:37:07.931Z,13.83
2022-09-27T11:39:52.348Z,13.81
2022-09-27T11:42:45.103Z,13.74
2022-09-27T11:45:40.988Z,13.77
2022-09-27T11:48:27.688Z,13.70
2022-09-27T11:51:08.850Z,13.65
2022-09-27T11:53:53.459Z,13.69
2022-09-27T11:56:33.476Z,13.69
2022-09-27T11:59:24.804Z,13.78
2022-09-27T12:01:57.651Z,13.82
2022-09-27T12:04:58.219Z,13.87
2022-09-27T12:07:35.349Z,13.98
2022-09-27T12:10:10.718Z,14.02
2022-09-27T12:12:43.687Z,14.19
2022-09-27T12:15:18.903Z,14.25
2022-09-27T12:17:50.406Z,14.27
2022-09-27T12:20:21.986Z,14.33
2022-09-27T12:22:59.722Z,14.39
2022-09-27T12:25:33.495Z,14.42
2022-09-27T12:28:08.512Z,14.48
2022-09-27T12:30:42.053Z,14.46
2022-09-27T12:33:18.010Z,14.45
2022-09-27T12:35:51.815Z,14.39
2022-09-27T12:38:24.519Z,14.31
2022-09-27T12:40:56.920Z,14.23
2022-09-27T12:43:28.412Z,14.20
2022-09-27T12:46:07.619Z,14.22
2022-09-27T12:48:41.312Z,14.19
2022-09-27T12:51:11.660Z,14.20
2022-09-27T12:53:56.215Z,14.28
2022-09-27T12:56:36.690Z,14.31
2022-09-27T12:59:26.700Z,14.32
2022-09-27T13:02:41.459Z,14.35
2022-09-27T13:05:41.773Z,14.46
2022-09-27T13:08:26.937Z,14.64
2022-09-27T13:11:10.576Z,14.50
2022-09-27T13:13:40.815Z,14.45
2022-09-27T13:16:10.296Z,14.47
2022-09-27T13:18:59.561Z,14.44
2022-09-27T13:21:56.679Z,14.39
2022-09-27T13:24:45.113Z,14.37
2022-09-27T13:27:38.475Z,14.38
2022-09-27T13:30:50.787Z,14.33
2022-09-27T13:33:49.394Z,14.29
2022-09-27T13:36:33.001Z,14.35
2022-09-27T13:39:17.536Z,14.34
2022-09-27T13:42:08.133Z,14.31
2022-09-27T13:44:47.316Z,14.28
2022-09-27T13:47:27.770Z,14.30
2022-09-27T13:50:05.424Z,14.37
2022-09-27T13:52:36.462Z,14.36
2022-09-27T13:55:08.030Z,14.42
2022-09-27T13:57:51.348Z,14.44
2022-09-27T14:00:22.642Z,14.41
2022-09-27T14:03:01.022Z,14.40
2022-09-27T14:05:36.165Z,14.46
2022-09-27T14:08:06.227Z,14.44
2022-09-27T14:10:36.156Z,14.41
2022-09-27T14:13:07.316Z,14.39
2022-09-27T14:15:35.813Z,14.39
2022-09-27T14:18:04.122Z,14.40
2022-09-27T14:20:45.046Z,14.35
2022-09-27T14:23:19.265Z,14.33
2022-09-27T14:25:49.012Z,14.37
2022-09-27T14:28:22.656Z,14.37
2022-09-27T14:31:06.175Z,14.41
2022-09-27T14:33:35.811Z,14.40
2022-09-27T14:36:25.728Z,14.42
2022-09-27T14:38:53.875Z,14.46
2022-09-27T14:41:22.073Z,14.49
2022-09-27T14:43:50.792Z,14.46
2022-09-27T14:46:30.395Z,14.45
2022-09-27T14:48:59.469Z,14.44
2022-09-27T14:51:33.351Z,14.45
2022-09-27T14:54:05.697Z,14.53
2022-09-27T14:56:37.855Z,14.61
2022-09-27T14:59:11.543Z,14.65
2022-09-27T15:01:42.647Z,14.71
2022-09-27T15:04:16.432Z,14.68
2022-09-27T15:06:47.022Z,14.62
2022-09-27T15:09:17.287Z,14.65
2022-09-27T15:11:49.617Z,14.64
2022-09-27T15:14:20.576Z,14.61
2022-09-27T15:16:49.827Z,14.61
2022-09-27T15:19:24.288Z,14.58
2022-09-27T15:21:54.137Z,14.61
2022-09-27T15:24:39.942Z,14.55
2022-09-27T15:27:16.717Z,14.59
2022-09-27T15:29:51.492Z,14.62
2022-09-27T15:32:23.575Z,14.63
2022-09-27T15:34:52.632Z,14.62
2022-09-27T15:37:30.259Z,14.62
2022-09-27T15:40:30.241Z,14.58
2022-09-27T15:43:01.510Z,14.54
2022-09-27T15:45:31.358Z,14.51
2022-09-27T15:48:08.353Z,14.45
2022-09-27T15:50:38.360Z,14.44
2022-09-27T15:53:09.346Z,14.48
2022-09-27T15:55:42.203Z,14.44
2022-09-27T15:58:16.893Z,14.43
2022-09-27T16:00:55.825Z,14.35
2022-09-27T16:03:25.013Z,14.33
2022-09-27T16:05:53.443Z,14.28
2022-09-27T16:08:23.063Z,14.19
2022-09-27T16:10:53.580Z,14.13
2022-09-27T16:13:22.139Z,14.08
2022-09-27T16:15:50.922Z,14.04
2022-09-27T16:18:19.348Z,14.06
2022-09-27T16:20:47.400Z,14.00
2022-09-27T16:23:15.732Z,13.98
2022-09-27T16:25:45.170Z,13.98
2022-09-27T16:28:13.421Z,14.01
2022-09-27T16:30:41.669Z,13.96
2022-09-27T16:33:09.763Z,13.91
2022-09-27T16:35:40.929Z,13.85
2022-09-27T16:38:09.195Z,13.76
2022-09-27T16:40:37.731Z,13.71
2022-09-27T16:43:08.312Z,13.72
2022-09-27T16:45:36.933Z,13.69
2022-09-27T16:48:05.337Z,13.67
2022-09-27T16:50:51.130Z,13.66
2022-09-27T16:53:19.351Z,13.61
2022-09-27T16:55:47.849Z,13.57
2022-09-27T16:58:17.447Z,13.54
2022-09-27T17:00:45.867Z,13.52
2022-09-27T17:03:14.047Z,13.58
2022-09-27T17:05:42.278Z,13.54
2022-09-27T17:08:10.611Z,13.56
2022-09-27T17:10:39.173Z,13.54
2022-09-27T17:13:07.333Z,13.50
2022-09-27T17:15:38.799Z,13.51
2022-09-27T17:18:06.827Z,13.49
2022-09-27T17:20:35.087Z,13.44
2022-09-27T17:23:03.473Z,13.44
2022-09-27T17:25:31.645Z,13.46
2022-09-27T17:27:59.924Z,13.44
2022-09-27T17:30:28.104Z,13.43
2022-09-27T17:32:58.177Z,13.42
2022-09-27T17:35:26.453Z,13.42
2022-09-27T17:37:56.179Z,13.42
2022-09-27T17:40:24.379Z,13.37
2022-09-27T17:42:52.861Z,13.38
2022-09-27T17:45:21.615Z,13.36
2022-09-27T17:48:09.572Z,13.32
2022-09-27T17:50:46.843Z,13.33
2022-09-27T17:53:14.989Z,13.34
2022-09-27T17:55:43.095Z,13.30
2022-09-27T17:58:11.174Z,13.28
2022-09-27T18:00:39.875Z,13.28
2022-09-27T18:03:07.982Z,13.26
2022-09-27T18:05:37.542Z,13.24
2022-09-27T18:08:07.213Z,13.24
2022-09-27T18:10:35.703Z,13.20
2022-09-27T18:13:07.474Z,13.19
2022-09-27T18:15:37.458Z,13.18
2022-09-27T18:18:05.996Z,13.18
2022-09-27T18:20:35.187Z,13.21
2022-09-27T18:23:03.354Z,13.17
2022-09-27T18:25:40.352Z,13.15
2022-09-27T18:28:08.996Z,13.15
2022-09-27T18:30:37.242Z,13.16
2022-09-27T18:33:05.492Z,13.14
2022-09-27T18:35:36.043Z,13.12
2022-09-27T18:38:04.166Z,13.12
2022-09-27T18:40:55.257Z,13.15
2022-09-27T18:43:21.735Z,13.15
2022-09-27T18:45:49.877Z,13.16
2022-09-27T18:48:18.033Z,13.17
2022-09-27T18:50:46.831Z,13.18
2022-09-27T18:53:15.176Z,13.18
2022-09-27T18:55:44.870Z,13.16
2022-09-27T18:58:16.120Z,13.18
2022-09-27T19:00:45.078Z,13.15
2022-09-27T19:03:16.254Z,13.14
2022-09-27T19:05:44.851Z,13.12
2022-09-27T19:08:13.301Z,13.09
2022-09-27T19:10:41.799Z,13.06
2022-09-27T19:13:11.446Z,13.05
2022-09-27T19:15:39.729Z,13.02
2022-09-27T19:18:08.013Z,12.99
2022-09-27T19:20:36.493Z,12.95
2022-09-27T19:23:04.674Z,12.91
2022-09-27T19:25:32.871Z,12.90
2022-09-27T19:28:01.040Z,12.90
2022-09-27T19:30:30.526Z,12.88
2022-09-27T19:32:58.701Z,12.83
2022-09-27T19:35:27.040Z,12.82
2022-09-27T19:37:55.249Z,12.78
2022-09-27T19:40:23.420Z,12.77
2022-09-27T19:42:52.638Z,12.77
2022-09-27T19:45:21.159Z,12.77
2022-09-27T19:47:50.985Z,12.73
2022-09-27T19:50:19.286Z,12.73
2022-09-27T19:52:47.589Z,12.75
2022-09-27T19:55:15.992Z,12.71
2022-09-27T19:57:44.093Z,12.68
2022-09-27T20:00:12.995Z,12.66
2022-09-27T20:02:42.142Z,12.62
2022-09-27T20:05:11.794Z,12.57
2022-09-27T20:07:39.899Z,12.53
2022-09-27T20:10:09.138Z,12.50
2022-09-27T20:12:37.271Z,12.47
2022-09-27T20:15:05.972Z,12.44
2022-09-27T20:17:34.550Z,12.42
2022-09-27T20:20:03.085Z,12.38
2022-09-27T20:22:32.854Z,12.40
2022-09-27T20:25:01.029Z,12.35
2022-09-27T20:27:29.318Z,12.34
2022-09-27T20:29:57.551Z,12.34
2022-09-27T20:32:28.325Z,12.35
2022-09-27T20:34:56.717Z,12.35
2022-09-27T20:37:25.716Z,12.28
2022-09-27T20:39:55.124Z,12.22
2022-09-27T20:42:23.308Z,12.24
2022-09-27T20:44:54.312Z,12.20
2022-09-27T20:47:23.223Z,12.20
2022-09-27T20:49:51.649Z,12.16
2022-09-27T20:52:19.805Z,12.15
2022-09-27T20:54:48.170Z,12.16
2022-09-27T20:57:27.756Z,12.14
2022-09-27T21:00:03.649Z,12.10
2022-09-27T21:02:31.888Z,12.09
2022-09-27T21:05:00.132Z,12.07
2022-09-27T21:07:28.580Z,12.05
2022-09-27T21:09:56.769Z,12.08
2022-09-27T21:12:26.384Z,12.05
2022-09-27T21:14:54.527Z,12.05
2022-09-27T21:17:22.839Z,12.03
2022-09-27T21:19:51.217Z,12.01
2022-09-27T21:22:20.582Z,11.98
2022-09-27T21:24:48.721Z,12.00
2022-09-27T21:27:16.912Z,11.98
2022-09-27T21:29:46.383Z,11.98
2022-09-27T21:32:14.654Z,11.97
2022-09-27T21:34:42.739Z,12.01
2022-09-27T21:37:10.862Z,12.03
2022-09-27T21:39:39.027Z,12.02
2022-09-27T21:42:07.904Z,12.05
2022-09-27T21:44:36.106Z,12.05
2022-09-27T21:47:05.801Z,12.03
2022-09-27T21:49:34.158Z,12.03
2022-09-27T21:52:02.772Z,12.08
2022-09-27T21:54:31.675Z,12.08
2022-09-27T21:56:59.915Z,12.09
2022-09-27T21:59:28.132Z,12.07
2022-09-27T22:01:56.341Z,12.04
2022-09-27T22:04:26.056Z,11.99
2022-09-27T22:06:54.618Z,11.97
2022-09-27T22:09:25.900Z,11.94
2022-09-27T22:11:54.392Z,11.91
2022-09-27T22:14:22.432Z,11.90
2022-09-27T22:16:50.667Z,11.90
2022-09-27T22:19:19.383Z,11.89
2022-09-27T22:21:49.244Z,11.88
2022-09-27T22:24:19.026Z,11.85
2022-09-27T22:26:49.580Z,11.84
2022-09-27T22:29:18.304Z,11.83
2022-09-27T22:31:46.885Z,11.78
2022-09-27T22:34:18.923Z,11.78
2022-09-27T22:36:48.549Z,11.76
2022-09-27T22:39:16.752Z,11.72
2022-09-27T22:41:44.930Z,11.70
2022-09-27T22:44:13.129Z,11.66
2022-09-27T22:46:41.406Z,11.60
2022-09-27T22:49:09.980Z,11.60
2022-09-27T22:51:38.256Z,11.58
2022-09-27T22:54:08.805Z,11.55
2022-09-27T22:56:36.940Z,11.51
2022-09-27T22:59:05.346Z,11.49
2022-09-27T23:01:33.571Z,11.46
2022-09-27T23:04:02.197Z,11.50
2022-09-27T23:06:30.768Z,11.48
2022-09-27T23:09:00.200Z,11.49
2022-09-27T23:11:31.584Z,11.48
2022-09-27T23:13:59.597Z,11.46
2022-09-27T23:16:27.716Z,11.42
2022-09-27T23:18:56.998Z,11.41
2022-09-27T23:21:26.287Z,11.40
2022-09-27T23:23:56.626Z,11.40
2022-09-27T23:26:26.479Z,11.38
2022-09-27T23:28:57.092Z,11.40
2022-09-27T23:31:25.279Z,11.39
2022-09-27T23:33:54.516Z,11.38
2022-09-27T23:36:26.276Z,11.37
2022-09-27T23:38:55.785Z,11.36
2022-09-27T23:41:23.832Z,11.32
2022-09-27T23:43:53.479Z,11.31
2022-09-27T23:46:24.027Z,11.32
2022-09-27T23:48:53.615Z,11.30
2022-09-27T23:51:21.944Z,11.31
2022-09-27T23:53:50.145Z,11.23
2022-09-27T23:56:19.027Z,11.21
2022-09-27T23:58:48.003Z,11.20
